Antioch, Tennessee
Current Conditions -  °F | °C
As of 11:53 AM on Wednesday 28 Jan 2015 (Local Time) from KBNA Reporting Station
Scattered Clouds Scattered Clouds  
Wind Chill: 40°   Ceiling: Unl
Heat Index: 44°   Visibility: 10mi
Dew Point: 23°   Wind: 7mph
Humidity: 43%   Direction: 130°SE
Pressure: 30.31"   Gusts: NA
Location:  36.06°N, 86.67°W
Report Text: KBNA 281753Z 13006KT 10SM SCT250 07/M05 A3031 RMK AO2 SLP267 T00671050 10067 21011 58011
Loading
Personal Weather Stations






























Interactive Weather Map New forecast layout! Learn more

10-Day Weather Forecast

Advertisements
Track Severe Weather on mobile